Orange8 — JL6278 — position and weather

sailwx.info

Track history (hours):
 
Tides and Currents Weather Stations Pressure Air Temp Water Temp Dewpoint Dewpoint Depression Visibility Wind Speed Wind Dir Waves Ship Positions

Orange8

Last reported at 2015-May-27 04:33 UTC. Time now 2015-May-27 05:56 UTC.
Position N 34°37' E 135°26'.

Length 164 m; draft 5 m.

Type: Passenger vessel. MMSI: 431501603.

Date/timePositionNaut miles runAvg speedWind from/ knotsBaromVisibWave heightAir tempDewpointWater temp
2015-May-27 04:33N 34°37' E 135°26'0 0.0
2015-May-27 03:33N 34°37' E 135°26'0 0.0
2015-May-27 02:33N 34°37' E 135°26'0 0.0
2015-May-27 01:33N 34°37' E 135°26'0 0.0
2015-May-27 00:33N 34°37' E 135°26'0 0.0
2015-May-26 23:33N 34°37' E 135°26'0 0.0
2015-May-26 22:33N 34°37' E 135°26'0 0.0
2015-May-26 21:33N 34°37' E 135°26'7 6.9
2015-May-26 20:33N 34°36' E 135°18'1818.4
2015-May-26 19:33N 34°36' E 134°56'2 0.1
2015-May-25 14:33N 34°37' E 134°58'1717.3
2015-May-25 13:33N 34°36' E 135°18'6 6.2
2015-May-25 12:34N 34°37' E 135°26'0 0.0
2015-May-25 11:28N 34°37' E 135°26'0 0.0
2015-May-25 10:28N 34°37' E 135°26'0 0.0
2015-May-25 09:28N 34°37' E 135°26'0 0.0
2015-May-25 08:22N 34°37' E 135°26'0 0.0
2015-May-25 07:28N 34°37' E 135°26'0 0.0
2015-May-25 06:28N 34°37' E 135°26'0 0.0
2015-May-25 05:28N 34°37' E 135°26'0 0.0
2015-May-25 04:28N 34°37' E 135°26'0 0.0
2015-May-25 03:28N 34°37' E 135°26'0 0.0
2015-May-25 02:34N 34°37' E 135°26'0 0.0
2015-May-25 01:28N 34°37' E 135°26'0 0.0
2015-May-25 00:28N 34°37' E 135°26'0 0.0
2015-May-24 23:22N 34°37' E 135°26'0 0.0
2015-May-24 22:34N 34°37' E 135°26'0 0.0
2015-May-24 21:28N 34°37' E 135°26'6 6.4
2015-May-24 20:33N 34°35' E 135°19'1817.7
2015-May-24 19:33N 34°37' E 134°58'1 0.0
2015-May-23 14:33N 34°37' E 134°57'1818.1
2015-May-23 13:33N 34°37' E 135°19'6 5.9
2015-May-23 12:33N 34°37' E 135°26'0 0.0
2015-May-23 11:33N 34°37' E 135°26'0 0.0
2015-May-23 10:33N 34°37' E 135°26'0 0.0
2015-May-23 09:21N 34°37' E 135°26'0 0.0
2015-May-23 08:27N 34°37' E 135°26'0 0.0
2015-May-23 07:33N 34°37' E 135°26'0 0.0
2015-May-23 06:33N 34°37' E 135°26'0 0.0
2015-May-23 05:27N 34°37' E 135°26'0 0.0
2015-May-23 04:33N 34°37' E 135°26'0 0.0
2015-May-23 03:33N 34°37' E 135°26'0 0.0
2015-May-23 02:33N 34°37' E 135°26'0 0.0
2015-May-23 01:33N 34°37' E 135°26'0 0.0
2015-May-23 00:15N 34°37' E 135°26'0 0.0
2015-May-22 23:33N 34°37' E 135°26'0 0.0
2015-May-22 21:15N 34°37' E 135°26'5 7.4
2015-May-22 20:33N 34°36' E 135°20'1817.5
2015-May-22 19:32N 34°37' E 134°58'1 0.0
2015-May-21 14:33N 34°37' E 134°57'1818.4
2015-May-21 13:33N 34°37' E 135°19'6 5.6
2015-May-21 12:33N 34°37' E 135°26'0 0.0
2015-May-21 11:30N 34°37' E 135°26'0 0.0
2015-May-21 10:30N 34°37' E 135°26'0 0.0
2015-May-21 09:30N 34°37' E 135°26'0 0.0
2015-May-21 08:30N 34°37' E 135°26'0 0.0
2015-May-21 07:30N 34°37' E 135°26'0 0.0
2015-May-21 06:24N 34°37' E 135°26'0 0.0
2015-May-21 05:30N 34°37' E 135°26'0 0.0
2015-May-21 04:24N 34°37' E 135°26'0 0.0
2015-May-21 03:30N 34°37' E 135°26'0 0.0
2015-May-21 02:30N 34°37' E 135°26'0 0.0
2015-May-21 01:24N 34°37' E 135°26'0 0.0
2015-May-21 00:24N 34°37' E 135°26'0 0.0
2015-May-20 23:30N 34°37' E 135°26'0 0.0
2015-May-20 22:30N 34°37' E 135°26'0 0.0
2015-May-20 21:30N 34°37' E 135°26'5 5.4
2015-May-20 20:33N 34°36' E 135°20'1818.2
2015-May-20 19:32N 34°37' E 134°58'1 0.0
2015-May-19 14:33N 34°37' E 134°56'1818.5
2015-May-19 13:33N 34°37' E 135°18'6 6.1
2015-May-19 12:32N 34°37' E 135°26'0 0.0
2015-May-19 11:26N 34°37' E 135°26'0 0.0
2015-May-19 10:26N 34°37' E 135°26'0 0.0
2015-May-19 07:32N 34°37' E 135°26'0 0.0
2015-May-19 06:26N 34°37' E 135°26'0 0.0
2015-May-19 05:20N 34°37' E 135°26'0 0.0
2015-May-19 04:32N 34°37' E 135°26'0 0.0
2015-May-19 03:32N 34°37' E 135°26'0 0.0
2015-May-19 02:32N 34°37' E 135°26'0 0.0
2015-May-19 01:32N 34°37' E 135°26'0 0.0
2015-May-19 00:20N 34°37' E 135°26'0 0.0
2015-May-18 23:32N 34°37' E 135°26'0 0.0
2015-May-18 22:32N 34°37' E 135°26'0 0.0
2015-May-18 21:26N 34°37' E 135°26'6 6.6
2015-May-18 20:33N 34°35' E 135°19'1918.2
2015-May-18 19:32N 34°36' E 134°57'0 0.0
2015-May-17 14:33N 34°37' E 134°56'1818.0
2015-May-17 13:33N 34°36' E 135°18'6 6.1
2015-May-17 12:32N 34°37' E 135°26'0 0.0
2015-May-17 11:26N 34°37' E 135°26'0 0.0
2015-May-17 10:32N 34°37' E 135°26'0 0.0
2015-May-17 09:32N 34°37' E 135°26'0 0.0
2015-May-17 08:26N 34°37' E 135°26'0 0.0
2015-May-17 07:32N 34°37' E 135°26'0 0.0
2015-May-17 06:20N 34°37' E 135°26'0 0.0
2015-May-17 05:26N 34°37' E 135°26'  
Track history (hours):
 
Tides and Currents Weather Stations Pressure Air Temp Water Temp Dewpoint Dewpoint Depression Visibility Wind Speed Wind Dir Waves Ship Positions

Orange8

Last reported at 2015-May-27 04:33 UTC. Time now 2015-May-27 05:56 UTC.
Position N 34°37' E 135°26'.

Length 164 m; draft 5 m.

Type: Passenger vessel. MMSI: 431501603.

Date/timePositionNaut miles runAvg speedWind from/ knotsBaromVisibWave heightAir tempDewpointWater temp
2015-May-27 04:33N 34°37' E 135°26'0 0.0
2015-May-27 03:33N 34°37' E 135°26'0 0.0
2015-May-27 02:33N 34°37' E 135°26'0 0.0
2015-May-27 01:33N 34°37' E 135°26'0 0.0
2015-May-27 00:33N 34°37' E 135°26'0 0.0
2015-May-26 23:33N 34°37' E 135°26'0 0.0
2015-May-26 22:33N 34°37' E 135°26'0 0.0
2015-May-26 21:33N 34°37' E 135°26'7 6.9
2015-May-26 20:33N 34°36' E 135°18'1818.4
2015-May-26 19:33N 34°36' E 134°56'2 0.1
2015-May-25 14:33N 34°37' E 134°58'1717.3
2015-May-25 13:33N 34°36' E 135°18'6 6.2
2015-May-25 12:34N 34°37' E 135°26'0 0.0
2015-May-25 11:28N 34°37' E 135°26'0 0.0
2015-May-25 10:28N 34°37' E 135°26'0 0.0
2015-May-25 09:28N 34°37' E 135°26'0 0.0
2015-May-25 08:22N 34°37' E 135°26'0 0.0
2015-May-25 07:28N 34°37' E 135°26'0 0.0
2015-May-25 06:28N 34°37' E 135°26'0 0.0
2015-May-25 05:28N 34°37' E 135°26'0 0.0
2015-May-25 04:28N 34°37' E 135°26'0 0.0
2015-May-25 03:28N 34°37' E 135°26'0 0.0
2015-May-25 02:34N 34°37' E 135°26'0 0.0
2015-May-25 01:28N 34°37' E 135°26'0 0.0
2015-May-25 00:28N 34°37' E 135°26'0 0.0
2015-May-24 23:22N 34°37' E 135°26'0 0.0
2015-May-24 22:34N 34°37' E 135°26'0 0.0
2015-May-24 21:28N 34°37' E 135°26'6 6.4
2015-May-24 20:33N 34°35' E 135°19'1817.7
2015-May-24 19:33N 34°37' E 134°58'1 0.0
2015-May-23 14:33N 34°37' E 134°57'1818.1
2015-May-23 13:33N 34°37' E 135°19'6 5.9
2015-May-23 12:33N 34°37' E 135°26'0 0.0
2015-May-23 11:33N 34°37' E 135°26'0 0.0
2015-May-23 10:33N 34°37' E 135°26'0 0.0
2015-May-23 09:21N 34°37' E 135°26'0 0.0
2015-May-23 08:27N 34°37' E 135°26'0 0.0
2015-May-23 07:33N 34°37' E 135°26'0 0.0
2015-May-23 06:33N 34°37' E 135°26'0 0.0
2015-May-23 05:27N 34°37' E 135°26'0 0.0
2015-May-23 04:33N 34°37' E 135°26'0 0.0
2015-May-23 03:33N 34°37' E 135°26'0 0.0
2015-May-23 02:33N 34°37' E 135°26'0 0.0
2015-May-23 01:33N 34°37' E 135°26'0 0.0
2015-May-23 00:15N 34°37' E 135°26'0 0.0
2015-May-22 23:33N 34°37' E 135°26'0 0.0
2015-May-22 21:15N 34°37' E 135°26'5 7.4
2015-May-22 20:33N 34°36' E 135°20'1817.5
2015-May-22 19:32N 34°37' E 134°58'1 0.0
2015-May-21 14:33N 34°37' E 134°57'1818.4
2015-May-21 13:33N 34°37' E 135°19'6 5.6
2015-May-21 12:33N 34°37' E 135°26'0 0.0
2015-May-21 11:30N 34°37' E 135°26'0 0.0
2015-May-21 10:30N 34°37' E 135°26'0 0.0
2015-May-21 09:30N 34°37' E 135°26'0 0.0
2015-May-21 08:30N 34°37' E 135°26'0 0.0
2015-May-21 07:30N 34°37' E 135°26'0 0.0
2015-May-21 06:24N 34°37' E 135°26'0 0.0
2015-May-21 05:30N 34°37' E 135°26'0 0.0
2015-May-21 04:24N 34°37' E 135°26'0 0.0
2015-May-21 03:30N 34°37' E 135°26'0 0.0
2015-May-21 02:30N 34°37' E 135°26'0 0.0
2015-May-21 01:24N 34°37' E 135°26'0 0.0
2015-May-21 00:24N 34°37' E 135°26'0 0.0
2015-May-20 23:30N 34°37' E 135°26'0 0.0
2015-May-20 22:30N 34°37' E 135°26'0 0.0
2015-May-20 21:30N 34°37' E 135°26'5 5.4
2015-May-20 20:33N 34°36' E 135°20'1818.2
2015-May-20 19:32N 34°37' E 134°58'1 0.0
2015-May-19 14:33N 34°37' E 134°56'1818.5
2015-May-19 13:33N 34°37' E 135°18'6 6.1
2015-May-19 12:32N 34°37' E 135°26'0 0.0
2015-May-19 11:26N 34°37' E 135°26'0 0.0
2015-May-19 10:26N 34°37' E 135°26'0 0.0
2015-May-19 07:32N 34°37' E 135°26'0 0.0
2015-May-19 06:26N 34°37' E 135°26'0 0.0
2015-May-19 05:20N 34°37' E 135°26'0 0.0
2015-May-19 04:32N 34°37' E 135°26'0 0.0
2015-May-19 03:32N 34°37' E 135°26'0 0.0
2015-May-19 02:32N 34°37' E 135°26'0 0.0
2015-May-19 01:32N 34°37' E 135°26'0 0.0
2015-May-19 00:20N 34°37' E 135°26'0 0.0
2015-May-18 23:32N 34°37' E 135°26'0 0.0
2015-May-18 22:32N 34°37' E 135°26'0 0.0
2015-May-18 21:26N 34°37' E 135°26'6 6.6
2015-May-18 20:33N 34°35' E 135°19'1918.2
2015-May-18 19:32N 34°36' E 134°57'0 0.0
2015-May-17 14:33N 34°37' E 134°56'1818.0
2015-May-17 13:33N 34°36' E 135°18'6 6.1
2015-May-17 12:32N 34°37' E 135°26'0 0.0
2015-May-17 11:26N 34°37' E 135°26'0 0.0
2015-May-17 10:32N 34°37' E 135°26'0 0.0
2015-May-17 09:32N 34°37' E 135°26'0 0.0
2015-May-17 08:26N 34°37' E 135°26'0 0.0
2015-May-17 07:32N 34°37' E 135°26'0 0.0
2015-May-17 06:20N 34°37' E 135°26'0 0.0
2015-May-17 05:26N 34°37' E 135°26'  

Dump ship's entire track history